Time;durP1;ratioP1;P1;durP2;ratioP2;P2;SDS_P1;SDS_P2;PMS_P1;PMS_P2;Temp;Humidity;BMP_temperature;BMP_pressure;BME280_temperature;BME280_humidity;BME280_pressure;Samples;Min_cycle;Max_cycle;Signal;HPM_P1;HPM_P2
2023/06/29 05:05:58;;;;;;;40.95;22.70;;;21.10;99.90;;;;;;5131333;23;20214;-94
2023/06/29 05:08:00;;;;;;;41.42;22.27;;;21.10;99.90;;;;;;5085708;23;20283;-95
2023/06/29 05:10:01;;;;;;;38.78;23.23;;;21.10;99.90;;;;;;5094169;23;20275;-95
2023/06/29 05:12:02;;;;;;;37.72;22.58;;;21.10;99.90;;;;;;5093646;23;20149;-93
2023/06/29 05:14:03;;;;;;;38.92;22.80;;;21.20;99.90;;;;;;5094073;23;20155;-95
2023/06/29 05:16:06;;;;;;;41.15;23.80;;;21.30;99.90;;;;;;5093505;23;20180;-96
2023/06/29 05:18:07;;;;;;;39.97;24.50;;;21.40;99.90;;;;;;5093962;23;20172;-93
2023/06/29 05:20:08;;;;;;;44.47;24.30;;;21.40;99.90;;;;;;5093414;23;20149;-90
2023/06/29 05:22:09;;;;;;;38.50;24.40;;;21.40;99.90;;;;;;5093603;23;20149;-92
2023/06/29 05:24:10;;;;;;;40.35;24.17;;;21.40;99.90;;;;;;5093841;23;20149;-94
2023/06/29 05:26:11;;;;;;;43.10;23.83;;;21.30;99.90;;;;;;5119050;23;20195;-91
2023/06/29 05:28:11;;;;;;;36.97;23.52;;;21.20;99.90;;;;;;5121267;23;20172;-91
2023/06/29 05:30:13;;;;;;;39.58;23.52;;;21.20;99.90;;;;;;5118280;23;20307;-91
2023/06/29 05:32:14;;;;;;;40.50;24.30;;;21.40;99.90;;;;;;5095290;23;20540;-95
2023/06/29 05:34:14;;;;;;;42.83;25.52;;;21.50;99.90;;;;;;5118791;23;20159;-91
2023/06/29 05:36:15;;;;;;;42.83;24.00;;;21.30;99.90;;;;;;5118499;23;20159;-94
2023/06/29 05:38:16;;;;;;;37.58;24.83;;;21.40;99.90;;;;;;5094301;23;20169;-91
2023/06/29 05:40:17;;;;;;;42.67;24.60;;;21.20;99.90;;;;;;5093612;23;20238;-94
2023/06/29 05:42:17;;;;;;;40.15;24.40;;;21.30;99.90;;;;;;5093167;23;20236;-91
2023/06/29 05:44:18;;;;;;;40.53;24.25;;;21.30;99.90;;;;;;5093689;23;20156;-93
2023/06/29 05:46:19;;;;;;;40.00;24.88;;;21.30;99.90;;;;;;5093459;23;20184;-91
2023/06/29 05:48:20;;;;;;;37.97;24.60;;;21.30;99.90;;;;;;5093866;23;20208;-95
2023/06/29 05:50:21;;;;;;;37.85;24.20;;;21.30;99.90;;;;;;5117940;23;20184;-92
2023/06/29 05:52:22;;;;;;;38.42;23.50;;;21.30;99.90;;;;;;5093952;23;20161;-92
2023/06/29 05:54:22;;;;;;;37.38;23.33;;;21.40;99.90;;;;;;5118584;23;20156;-92
2023/06/29 05:56:23;;;;;;;38.53;24.27;;;21.30;99.90;;;;;;5094192;23;20145;-89
2023/06/29 05:58:26;;;;;;;43.08;24.70;;;21.30;99.90;;;;;;5118108;23;20175;-94
2023/06/29 06:00:26;;;;;;;41.85;25.75;;;21.30;99.90;;;;;;5095729;23;20157;-95
2023/06/29 06:02:27;;;;;;;38.53;23.90;;;21.30;99.90;;;;;;5093805;23;20157;-91
2023/06/29 06:04:28;;;;;;;40.63;24.23;;;21.40;99.90;;;;;;5118476;23;20152;-91
2023/06/29 06:06:32;;;;;;;37.97;24.08;;;21.30;99.90;;;;;;5118284;23;20211;-91
2023/06/29 06:08:33;;;;;;;41.22;25.45;;;21.30;99.90;;;;;;5118413;23;20184;-91
2023/06/29 06:10:34;;;;;;;41.97;25.05;;;21.30;99.90;;;;;;5093833;23;20191;-92
2023/06/29 06:12:35;;;;;;;41.50;24.90;;;21.30;99.90;;;;;;5093991;23;20148;-91
2023/06/29 06:14:36;;;;;;;45.97;24.38;;;21.40;99.90;;;;;;5093603;23;20596;-91
2023/06/29 06:16:37;;;;;;;41.65;24.52;;;21.50;99.90;;;;;;5096305;23;20156;-92
2023/06/29 06:18:37;;;;;;;42.92;24.42;;;21.50;99.90;;;;;;5094175;23;20177;-92
2023/06/29 06:20:38;;;;;;;42.20;24.73;;;21.60;99.90;;;;;;5118311;23;20159;-91
2023/06/29 06:22:39;;;;;;;42.35;24.23;;;21.50;99.90;;;;;;5094099;23;20148;-92
2023/06/29 06:24:40;;;;;;;43.22;25.17;;;21.40;99.90;;;;;;5095490;23;20145;-91
2023/06/29 06:26:41;;;;;;;41.03;24.92;;;21.50;99.90;;;;;;5094879;23;20691;-94
2023/06/29 06:28:42;;;;;;;40.90;25.17;;;21.60;99.90;;;;;;5118310;23;20172;-90
2023/06/29 06:30:43;;;;;;;41.83;24.83;;;21.70;99.90;;;;;;5119858;23;20196;-92
2023/06/29 06:32:44;;;;;;;42.38;25.48;;;21.50;99.90;;;;;;5119987;23;20155;-92
2023/06/29 06:34:45;;;;;;;39.20;25.20;;;21.60;99.90;;;;;;5095504;23;20153;-92
2023/06/29 06:36:48;;;;;;;36.60;24.27;;;21.70;99.90;;;;;;5095674;23;20236;-92
2023/06/29 06:38:49;;;;;;;36.58;24.02;;;21.80;99.90;;;;;;5095657;23;20179;-92
2023/06/29 06:40:51;;;;;;;42.25;24.55;;;21.80;99.90;;;;;;5095070;23;20157;-91
2023/06/29 06:42:51;;;;;;;40.80;25.67;;;21.80;99.90;;;;;;5120827;23;20588;-92
2023/06/29 06:44:54;;;;;;;40.75;26.10;;;21.80;99.90;;;;;;5120116;23;20156;-92
2023/06/29 06:46:55;;;;;;;44.50;25.83;;;21.70;99.90;;;;;;5095032;23;20607;-91
2023/06/29 06:48:56;;;;;;;39.90;25.73;;;21.90;99.90;;;;;;5095409;23;20234;-91
2023/06/29 06:50:57;;;;;;;37.38;24.88;;;21.80;99.90;;;;;;5118545;23;20155;-92
2023/06/29 06:52:58;;;;;;;45.35;26.73;;;21.90;99.90;;;;;;5095939;23;20159;-93
2023/06/29 06:55:01;;;;;;;42.63;24.98;;;22.10;99.90;;;;;;5095443;23;20159;-92
2023/06/29 06:57:02;;;;;;;39.80;25.85;;;22.10;99.90;;;;;;5094836;23;20543;-93
2023/06/29 06:59:04;;;;;;;44.67;26.33;;;22.30;99.90;;;;;;5119155;23;20179;-91
2023/06/29 07:01:07;;;;;;;40.22;26.02;;;22.30;99.90;;;;;;5072392;23;20181;-92
2023/06/29 07:03:07;;;;;;;38.40;26.00;;;22.40;99.90;;;;;;5096549;23;20265;-91
2023/06/29 07:05:08;;;;;;;40.65;26.48;;;22.30;99.90;;;;;;5096913;23;20196;-92
2023/06/29 07:07:09;;;;;;;38.38;25.60;;;22.40;99.90;;;;;;5120301;23;20160;-91
2023/06/29 07:09:10;;;;;;;41.33;25.55;;;22.50;99.90;;;;;;5098276;23;20628;-92
2023/06/29 07:11:11;;;;;;;40.58;25.73;;;22.50;99.90;;;;;;5094898;23;20216;-92
2023/06/29 07:13:12;;;;;;;41.42;26.42;;;22.50;99.90;;;;;;5119567;23;20649;-92
2023/06/29 07:15:13;;;;;;;41.50;26.38;;;22.60;99.90;;;;;;5095247;23;20164;-92
2023/06/29 07:17:13;;;;;;;46.65;27.55;;;22.70;99.90;;;;;;5096784;23;20200;-92
2023/06/29 07:19:15;;;;;;;41.17;25.98;;;22.90;99.90;;;;;;5096724;23;20149;-93
2023/06/29 07:21:15;;;;;;;41.28;25.13;;;22.70;99.90;;;;;;5095956;23;20616;-95
2023/06/29 07:23:16;;;;;;;44.00;27.23;;;22.70;99.90;;;;;;5094556;23;20188;-95
2023/06/29 07:25:17;;;;;;;39.78;26.25;;;22.70;99.90;;;;;;5095106;23;20480;-94
2023/06/29 07:27:18;;;;;;;46.63;26.20;;;22.70;99.90;;;;;;5120064;23;20182;-93
2023/06/29 07:29:18;;;;;;;41.58;26.42;;;22.70;99.90;;;;;;5120470;23;20658;-93
2023/06/29 07:31:26;;;;;;;40.72;26.13;;;22.70;99.90;;;;;;5097336;23;20634;-94
2023/06/29 07:33:32;;;;;;;43.17;26.52;;;22.90;99.90;;;;;;5097750;23;20175;-94
2023/06/29 07:35:34;;;;;;;42.45;25.38;;;23.00;99.90;;;;;;5095368;23;20604;-93
2023/06/29 07:37:34;;;;;;;39.70;25.73;;;23.00;99.90;;;;;;5119953;23;20168;-94
2023/06/29 07:39:35;;;;;;;40.97;25.67;;;22.90;99.90;;;;;;5119762;23;20144;-94
2023/06/29 07:41:36;;;;;;;41.67;25.80;;;22.90;99.90;;;;;;5095169;23;20690;-94
2023/06/29 07:43:39;;;;;;;40.67;25.38;;;23.10;99.90;;;;;;5094921;23;20145;-93
2023/06/29 07:45:39;;;;;;;41.53;24.65;;;23.10;99.90;;;;;;5119647;23;20159;-93
2023/06/29 07:47:42;;;;;;;42.63;25.70;;;23.10;99.90;;;;;;5119784;23;20642;-94
2023/06/29 07:49:43;;;;;;;43.05;25.67;;;23.00;99.90;;;;;;5096255;23;20219;-88
2023/06/29 07:51:43;;;;;;;41.38;25.17;;;23.10;99.90;;;;;;5118698;23;20535;-88
2023/06/29 07:53:44;;;;;;;39.70;26.80;;;23.30;99.90;;;;;;5145035;23;20250;-87
2023/06/29 07:55:45;;;;;;;42.60;25.20;;;23.50;99.90;;;;;;5145075;23;20167;-88
2023/06/29 07:57:46;;;;;;;41.30;25.98;;;23.50;99.90;;;;;;5119130;23;20551;-88
2023/06/29 07:59:47;;;;;;;46.28;26.42;;;23.60;99.90;;;;;;5095803;23;20247;-88
2023/06/29 08:01:48;;;;;;;39.88;26.15;;;23.50;99.90;;;;;;5118901;23;20531;-88
2023/06/29 08:03:49;;;;;;;40.35;26.17;;;23.50;99.90;;;;;;5120049;23;20202;-88
2023/06/29 08:05:52;;;;;;;41.88;26.38;;;23.60;99.90;;;;;;5145431;23;20183;-94
2023/06/29 08:07:52;;;;;;;40.50;25.88;;;23.70;99.90;;;;;;5094479;23;20172;-87
2023/06/29 08:09:53;;;;;;;43.13;26.63;;;23.80;99.90;;;;;;5093723;23;20674;-87
2023/06/29 08:11:54;;;;;;;42.70;26.88;;;23.90;99.90;;;;;;5118832;23;20188;-89
2023/06/29 08:13:54;;;;;;;42.28;25.60;;;24.00;99.90;;;;;;5093751;23;20156;-88
2023/06/29 08:15:55;;;;;;;40.70;26.15;;;24.10;99.90;;;;;;5119144;23;20144;-88
2023/06/29 08:17:56;;;;;;;44.00;26.90;;;23.90;99.90;;;;;;5144615;23;20167;-88
2023/06/29 08:19:56;;;;;;;45.15;26.52;;;23.80;99.90;;;;;;5120147;23;20227;-88
2023/06/29 08:21:57;;;;;;;46.75;26.85;;;23.70;99.90;;;;;;5118984;23;20152;-88
2023/06/29 08:23:58;;;;;;;49.22;27.88;;;23.80;99.90;;;;;;5095209;23;20137;-88
2023/06/29 08:25:59;;;;;;;51.80;28.08;;;23.80;99.90;;;;;;5093759;23;20153;-88
2023/06/29 08:27:59;;;;;;;40.92;27.13;;;23.90;99.90;;;;;;5119428;23;20235;-88
2023/06/29 08:30:00;;;;;;;39.92;26.38;;;24.00;99.90;;;;;;5094278;23;20180;-87
2023/06/29 08:32:01;;;;;;;46.53;28.13;;;23.80;99.90;;;;;;5093938;23;20156;-88
2023/06/29 08:34:02;;;;;;;48.55;26.77;;;23.80;99.90;;;;;;5093847;23;20145;-88
2023/06/29 08:36:03;;;;;;;49.80;28.63;;;24.10;99.90;;;;;;5119450;23;20461;-88
2023/06/29 08:38:03;;;;;;;41.05;26.33;;;24.20;99.90;;;;;;5094211;23;20305;-88
2023/06/29 08:40:05;;;;;;;41.70;27.67;;;24.30;99.90;;;;;;5118936;23;20528;-88
2023/06/29 08:42:06;;;;;;;46.20;27.92;;;24.30;99.90;;;;;;5118949;23;20152;-88
2023/06/29 08:44:07;;;;;;;46.95;27.35;;;24.20;99.90;;;;;;5096174;23;20161;-88
2023/06/29 08:46:08;;;;;;;44.28;27.77;;;24.30;99.90;;;;;;5093775;23;20206;-88
2023/06/29 08:48:11;;;;;;;42.00;27.98;;;24.40;99.90;;;;;;5093960;23;20173;-88
2023/06/29 08:50:13;;;;;;;42.00;27.65;;;24.40;99.90;;;;;;5093417;23;20188;-88
2023/06/29 08:52:20;;;;;;;47.85;28.17;;;24.40;99.90;;;;;;5118383;23;20144;-89
2023/06/29 08:54:21;;;;;;;48.30;28.17;;;24.50;99.90;;;;;;5093320;23;20308;-88
2023/06/29 08:56:23;;;;;;;46.15;27.73;;;24.40;99.90;;;;;;5093577;23;20227;-87
2023/06/29 08:58:24;;;;;;;42.63;27.73;;;24.70;99.90;;;;;;5093681;23;20177;-88
2023/06/29 09:00:26;;;;;;;46.67;28.65;;;24.60;99.90;;;;;;5118221;23;20183;-88
2023/06/29 09:02:28;;;;;;;44.85;28.67;;;24.70;99.90;;;;;;5093751;23;20153;-88
2023/06/29 09:04:28;;;;;;;50.30;29.30;;;24.90;99.90;;;;;;5093627;23;20172;-88
2023/06/29 09:06:29;;;;;;;46.22;28.77;;;24.80;99.90;;;;;;5093565;23;20465;-88
2023/06/29 09:08:30;;;;;;;49.08;28.65;;;24.80;99.90;;;;;;5093275;23;20172;-91
2023/06/29 09:10:31;;;;;;;48.92;28.98;;;25.00;99.90;;;;;;5118253;23;20183;-88
2023/06/29 09:12:33;;;;;;;45.65;29.17;;;25.10;99.90;;;;;;5118197;23;20158;-88
2023/06/29 09:14:38;;;;;;;45.28;27.52;;;25.20;99.90;;;;;;5093308;23;20160;-88
2023/06/29 09:16:58;;;;;;;45.40;28.80;;;25.30;99.90;;;;;;5118130;23;20168;-88
2023/06/29 09:18:58;;;;;;;44.03;29.05;;;25.30;99.90;;;;;;5093317;23;20172;-88
2023/06/29 09:20:59;;;;;;;49.35;28.65;;;25.40;99.90;;;;;;5093166;23;20235;-88
2023/06/29 09:23:03;;;;;;;45.83;30.13;;;25.70;99.90;;;;;;5118059;23;20153;-89
2023/06/29 09:25:04;;;;;;;43.05;29.08;;;25.90;99.90;;;;;;5093992;23;20260;-91
2023/06/29 09:27:05;;;;;;;50.25;28.60;;;26.10;99.90;;;;;;5093059;23;20199;-87
2023/06/29 09:29:06;;;;;;;41.92;28.48;;;26.50;99.90;;;;;;5094027;23;20224;-87
2023/06/29 09:31:08;;;;;;;42.40;29.48;;;26.80;99.90;;;;;;5093486;23;20223;-87
2023/06/29 09:33:12;;;;;;;43.83;28.85;;;26.60;99.90;;;;;;5093389;23;20149;-88
2023/06/29 09:35:13;;;;;;;42.20;28.88;;;26.80;99.90;;;;;;5093054;23;20149;-84
2023/06/29 09:37:18;;;;;;;43.83;29.65;;;27.00;99.90;;;;;;5117646;23;20195;-85
2023/06/29 09:39:19;;;;;;;44.65;29.88;;;27.40;99.90;;;;;;5093435;23;20157;-86
2023/06/29 09:41:20;;;;;;;45.53;30.55;;;27.50;99.90;;;;;;5093294;23;20157;-84
2023/06/29 09:43:26;;;;;;;43.33;30.42;;;27.70;99.90;;;;;;5118145;23;20605;-86
2023/06/29 09:45:30;;;;;;;47.33;29.48;;;28.30;99.90;;;;;;5144343;23;20218;-86
2023/06/29 09:47:31;;;;;;;48.63;30.67;;;28.50;99.90;;;;;;5093001;23;20177;-85
2023/06/29 09:49:43;;;;;;;45.33;29.35;;;28.50;99.90;;;;;;5093295;23;20192;-86
2023/06/29 09:51:45;;;;;;;50.13;32.92;;;28.80;99.90;;;;;;5093610;23;20180;-86
2023/06/29 09:53:46;;;;;;;42.20;29.58;;;28.50;99.90;;;;;;5118073;23;20209;-86
2023/06/29 09:55:48;;;;;;;47.30;29.38;;;28.00;99.90;;;;;;5117928;23;20212;-86
2023/06/29 09:57:50;;;;;;;44.15;30.30;;;28.00;99.90;;;;;;5093004;23;20215;-86
2023/06/29 09:59:51;;;;;;;45.25;30.70;;;27.90;99.90;;;;;;5117772;23;20156;-85
2023/06/29 10:01:52;;;;;;;47.35;31.67;;;27.90;99.90;;;;;;5117822;23;20210;-86
2023/06/29 10:03:52;;;;;;;44.67;30.48;;;27.80;99.90;;;;;;5118028;23;20152;-86
2023/06/29 10:06:00;;;;;;;45.95;31.58;;;27.70;99.90;;;;;;5143625;23;20144;-86
2023/06/29 10:08:04;;;;;;;45.40;30.83;;;27.60;99.90;;;;;;5117612;23;20206;-86
2023/06/29 10:10:10;;;;;;;44.03;30.77;;;27.60;99.90;;;;;;5143851;23;20172;-85
2023/06/29 10:12:11;;;;;;;45.72;30.13;;;27.80;99.90;;;;;;5117599;23;20595;-86
2023/06/29 10:14:14;;;;;;;49.33;29.98;;;28.00;99.90;;;;;;5092710;23;20149;-86
2023/06/29 10:16:19;;;;;;;45.08;30.85;;;28.10;99.90;;;;;;5117701;23;20227;-86
2023/06/29 10:18:28;;;;;;;47.70;30.65;;;28.60;99.90;;;;;;5117707;23;20177;-85
2023/06/29 10:20:32;;;;;;;43.45;30.60;;;29.20;99.90;;;;;;5092683;23;20272;-86
2023/06/29 10:22:36;;;;;;;46.03;30.23;;;29.20;99.90;;;;;;5092856;23;20157;-86
2023/06/29 10:24:42;;;;;;;48.55;32.47;;;29.60;99.90;;;;;;5093012;23;20149;-86
2023/06/29 10:26:44;;;;;;;50.00;33.17;;;29.70;99.90;;;;;;5144008;23;20147;-86
2023/06/29 10:28:45;;;;;;;43.55;32.00;;;29.60;99.90;;;;;;5143716;23;20163;-86
2023/06/29 10:30:47;;;;;;;43.88;32.25;;;29.40;99.90;;;;;;5117191;23;20195;-85
2023/06/29 10:32:50;;;;;;;55.17;34.13;;;29.10;99.90;;;;;;5117618;23;20264;-86
2023/06/29 10:35:11;;;;;;;48.97;33.25;;;28.70;99.90;;;;;;5093005;23;20153;-86
2023/06/29 10:37:32;;;;;;;46.90;33.20;;;28.60;99.90;;;;;;5117667;23;20207;-85
2023/06/29 10:39:41;;;;;;;49.70;32.95;;;28.30;99.90;;;;;;5117616;23;20656;-87
2023/06/29 10:41:42;;;;;;;52.17;32.95;;;28.20;99.90;;;;;;5143666;23;20151;-86
2023/06/29 10:43:56;;;;;;;50.00;31.65;;;27.80;99.90;;;;;;5117284;23;20153;-85
2023/06/29 10:45:59;;;;;;;45.30;33.15;;;27.70;99.90;;;;;;5144056;23;20178;-86
2023/06/29 10:48:01;;;;;;;47.50;33.30;;;27.90;99.90;;;;;;5117387;23;20191;-86
2023/06/29 10:50:11;;;;;;;53.33;32.75;;;28.00;99.90;;;;;;5143862;23;20182;-85
2023/06/29 10:52:23;;;;;;;48.70;33.22;;;28.10;99.90;;;;;;5144043;23;20144;-84
2023/06/29 10:54:24;;;;;;;48.28;32.83;;;28.10;99.90;;;;;;5092652;23;20243;-86
2023/06/29 10:56:32;;;;;;;47.38;33.08;;;28.10;99.90;;;;;;5092638;23;20188;-86
2023/06/29 10:58:37;;;;;;;49.97;33.83;;;28.00;99.90;;;;;;5143382;23;20626;-85
2023/06/29 11:00:38;;;;;;;51.05;34.47;;;27.50;99.90;;;;;;5117319;23;20148;-85
2023/06/29 11:02:40;;;;;;;52.47;33.47;;;27.50;99.90;;;;;;5092835;23;20153;-85
2023/06/29 11:04:41;;;;;;;51.70;33.67;;;27.50;99.90;;;;;;5143706;23;20159;-86
2023/06/29 11:06:42;;;;;;;47.78;32.97;;;27.50;99.90;;;;;;5117516;23;20164;-89
2023/06/29 11:08:42;;;;;;;49.30;34.38;;;27.60;99.90;;;;;;5092648;23;20177;-86
2023/06/29 11:10:44;;;;;;;57.00;35.22;;;27.50;99.90;;;;;;5117028;23;20192;-85
2023/06/29 11:12:45;;;;;;;47.30;34.42;;;27.20;99.90;;;;;;5143836;23;20465;-88
2023/06/29 11:14:50;;;;;;;50.30;35.13;;;27.20;99.90;;;;;;5117272;23;20484;-84
2023/06/29 11:16:54;;;;;;;51.08;34.47;;;27.10;99.90;;;;;;5117314;23;20152;-89
2023/06/29 11:18:54;;;;;;;52.30;35.58;;;27.20;99.90;;;;;;5145245;23;20242;-86
2023/06/29 11:20:55;;;;;;;53.30;35.05;;;26.90;99.90;;;;;;5119056;23;20156;-89
2023/06/29 11:22:59;;;;;;;52.63;34.83;;;26.80;99.90;;;;;;5119001;23;20148;-87
2023/06/29 11:24:59;;;;;;;48.85;34.42;;;26.80;99.90;;;;;;5119161;23;20511;-86
2023/06/29 11:27:01;;;;;;;55.70;34.25;;;26.60;99.90;;;;;;5094133;23;20153;-87
2023/06/29 11:29:07;;;;;;;52.17;35.13;;;27.00;99.90;;;;;;5118638;23;20258;-88
2023/06/29 11:31:08;;;;;;;56.47;35.35;;;26.90;99.90;;;;;;5118836;23;20238;-87
2023/06/29 11:33:12;;;;;;;53.20;36.42;;;26.70;99.90;;;;;;5118823;23;20144;-88
2023/06/29 11:35:13;;;;;;;57.40;35.85;;;26.60;99.90;;;;;;5144861;23;20490;-87
2023/06/29 11:37:13;;;;;;;56.25;35.03;;;26.50;99.90;;;;;;5118551;23;20145;-88
2023/06/29 11:39:15;;;;;;;53.95;34.17;;;26.40;99.90;;;;;;5118024;23;20238;-87
2023/06/29 11:41:16;;;;;;;49.28;34.67;;;26.20;99.90;;;;;;5118968;23;20602;-87
2023/06/29 11:43:17;;;;;;;55.45;36.15;;;26.30;99.90;;;;;;5144626;23;20151;-88
2023/06/29 11:45:17;;;;;;;51.65;34.08;;;26.60;99.90;;;;;;5118688;23;20603;-89
2023/06/29 11:47:19;;;;;;;54.63;34.38;;;26.90;99.90;;;;;;5119093;23;20191;-87
2023/06/29 11:49:20;;;;;;;52.05;34.20;;;27.00;99.90;;;;;;5118721;23;20464;-89
2023/06/29 11:51:25;;;;;;;56.50;36.08;;;27.50;99.90;;;;;;5118532;23;20245;-88
2023/06/29 11:53:26;;;;;;;51.38;34.40;;;27.80;99.90;;;;;;5118863;23;20167;-88
2023/06/29 11:55:27;;;;;;;53.75;33.85;;;28.20;99.90;;;;;;5093507;23;20156;-88
2023/06/29 11:57:32;;;;;;;51.97;34.42;;;28.70;99.90;;;;;;5093217;23;20175;-87
2023/06/29 11:59:37;;;;;;;50.30;34.42;;;29.00;99.90;;;;;;5093887;23;20171;-87
2023/06/29 12:01:39;;;;;;;49.63;34.35;;;28.60;99.90;;;;;;5093590;23;20145;-88
2023/06/29 12:03:39;;;;;;;50.58;33.75;;;28.70;99.90;;;;;;5094040;23;20667;-88
2023/06/29 12:05:41;;;;;;;52.58;33.97;;;28.70;99.90;;;;;;5118069;23;20144;-89
2023/06/29 12:07:46;;;;;;;50.70;33.40;;;28.50;99.90;;;;;;5117744;23;20176;-88
2023/06/29 12:09:47;;;;;;;45.70;33.03;;;28.60;99.90;;;;;;5144244;23;20179;-91
2023/06/29 12:12:03;;;;;;;48.53;32.92;;;28.70;99.90;;;;;;5092263;23;20481;-88
2023/06/29 12:14:05;;;;;;;48.50;31.75;;;28.70;99.90;;;;;;5142614;23;20148;-87
2023/06/29 12:16:06;;;;;;;55.65;33.25;;;28.60;99.90;;;;;;5093492;23;20596;-88
2023/06/29 12:18:14;;;;;;;51.75;33.45;;;28.30;99.90;;;;;;5144399;23;20168;-94
2023/06/29 12:20:16;;;;;;;43.95;32.30;;;27.90;99.90;;;;;;5117292;23;20148;-87
2023/06/29 12:22:16;;;;;;;49.75;32.42;;;27.90;99.90;;;;;;5143374;23;20518;-87
2023/06/29 12:24:17;;;;;;;51.53;32.67;;;28.00;99.90;;;;;;5118302;23;20179;-88
2023/06/29 12:26:19;;;;;;;50.70;32.75;;;28.00;99.90;;;;;;5118396;23;20568;-89
2023/06/29 12:28:19;;;;;;;48.92;32.80;;;27.80;99.90;;;;;;5093617;23;20174;-88
2023/06/29 12:30:21;;;;;;;44.25;31.95;;;27.80;99.90;;;;;;5117708;23;20626;-87
2023/06/29 12:32:22;;;;;;;48.92;33.28;;;27.90;99.90;;;;;;5118270;23;20191;-87
2023/06/29 12:34:23;;;;;;;47.10;32.13;;;28.40;99.90;;;;;;5118350;23;20152;-87
2023/06/29 12:36:24;;;;;;;50.47;32.65;;;28.60;99.90;;;;;;5118747;23;20508;-87
2023/06/29 12:38:25;;;;;;;55.17;34.33;;;28.90;99.90;;;;;;5117990;23;20212;-88
2023/06/29 12:40:25;;;;;;;48.47;32.85;;;29.00;99.90;;;;;;5118578;23;20502;-87
2023/06/29 12:42:26;;;;;;;45.00;31.63;;;29.00;99.90;;;;;;5093487;23;20157;-87
2023/06/29 12:44:27;;;;;;;49.13;32.05;;;28.80;99.90;;;;;;5093611;23;20488;-88
2023/06/29 12:46:27;;;;;;;46.22;32.58;;;28.70;99.90;;;;;;5093457;23;20160;-87
2023/06/29 12:48:28;;;;;;;49.00;32.85;;;28.40;99.90;;;;;;5093483;23;20165;-87
2023/06/29 12:50:29;;;;;;;46.47;31.98;;;28.30;99.90;;;;;;5117918;23;20186;-87
2023/06/29 12:52:30;;;;;;;48.10;32.08;;;27.90;99.90;;;;;;5118127;23;20591;-96
2023/06/29 12:54:35;;;;;;;48.30;30.70;;;27.90;99.90;;;;;;5093446;23;20537;-87
2023/06/29 12:56:37;;;;;;;42.15;28.83;;;27.60;99.90;;;;;;5093211;23;20619;-87
2023/06/29 12:58:38;;;;;;;44.03;29.88;;;27.20;99.90;;;;;;5093396;23;20212;-87
2023/06/29 13:00:39;;;;;;;38.47;27.10;;;26.80;99.90;;;;;;5118170;23;20182;-89
2023/06/29 13:02:40;;;;;;;43.55;28.35;;;26.30;99.90;;;;;;5093498;23;20703;-87
2023/06/29 13:04:40;;;;;;;40.67;28.05;;;25.70;99.90;;;;;;5117319;23;20182;-87
2023/06/29 13:06:41;;;;;;;43.17;28.38;;;25.60;99.90;;;;;;5117822;23;20149;-87
2023/06/29 13:08:43;;;;;;;43.83;26.98;;;25.90;99.90;;;;;;5091802;23;20315;-87
2023/06/29 13:10:44;;;;;;;44.70;26.15;;;25.90;99.90;;;;;;5116392;23;20246;-87
2023/06/29 13:12:45;;;;;;;47.15;26.85;;;26.00;99.90;;;;;;5091903;23;20163;-87
2023/06/29 13:14:47;;;;;;;45.75;25.88;;;26.10;99.90;;;;;;5092534;23;20184;-86
2023/06/29 13:16:48;;;;;;;37.38;26.00;;;26.00;99.90;;;;;;5117930;23;20163;-87
2023/06/29 13:18:48;;;;;;;37.25;25.88;;;26.00;99.90;;;;;;5091416;23;20295;-87
2023/06/29 13:20:49;;;;;;;39.47;25.45;;;25.90;99.90;;;;;;5117777;23;20234;-87
2023/06/29 13:22:50;;;;;;;37.15;25.77;;;26.00;99.90;;;;;;5117942;23;20175;-86
2023/06/29 13:24:50;;;;;;;40.05;26.20;;;26.50;99.90;;;;;;5093138;23;20164;-87
2023/06/29 13:26:51;;;;;;;41.75;25.33;;;26.70;99.90;;;;;;5118065;23;20191;-87
2023/06/29 13:28:52;;;;;;;36.90;24.73;;;27.00;99.90;;;;;;5092790;23;20172;-87
2023/06/29 13:30:52;;;;;;;41.47;24.77;;;27.20;99.90;;;;;;5117745;23;20203;-87
2023/06/29 13:32:53;;;;;;;36.80;26.17;;;27.30;99.90;;;;;;5093356;23;20224;-93
2023/06/29 13:34:54;;;;;;;39.03;24.10;;;27.30;99.90;;;;;;5117937;23;20151;-87
2023/06/29 13:36:55;;;;;;;33.97;22.73;;;27.10;99.90;;;;;;5093145;23;20145;-87
2023/06/29 13:38:55;;;;;;;37.35;24.20;;;27.10;99.90;;;;;;5093168;23;20172;-87
2023/06/29 13:40:56;;;;;;;36.55;23.52;;;27.00;99.90;;;;;;5117640;23;20152;-87
2023/06/29 13:42:57;;;;;;;35.13;22.73;;;26.60;99.90;;;;;;5092973;23;20643;-87
2023/06/29 13:44:57;;;;;;;32.40;22.08;;;26.40;99.90;;;;;;5117439;23;20591;-87
2023/06/29 13:46:58;;;;;;;33.95;22.27;;;26.30;99.90;;;;;;5093163;23;20160;-87
2023/06/29 13:48:59;;;;;;;32.08;21.77;;;26.10;99.90;;;;;;5118576;23;20168;-87
2023/06/29 13:51:00;;;;;;;33.05;21.95;;;26.10;99.90;;;;;;5092873;23;20204;-86
2023/06/29 13:53:00;;;;;;;29.23;20.50;;;26.40;99.90;;;;;;5117873;23;20159;-86
2023/06/29 13:55:01;;;;;;;31.40;20.15;;;26.70;99.90;;;;;;5117639;23;20699;-86
2023/06/29 13:57:03;;;;;;;34.90;19.90;;;26.80;99.90;;;;;;5092785;23;20612;-87
2023/06/29 13:59:08;;;;;;;28.85;20.52;;;26.80;99.90;;;;;;5117594;23;20195;-87
2023/06/29 14:01:09;;;;;;;26.35;18.75;;;27.00;99.90;;;;;;5117737;23;20145;-88
2023/06/29 14:03:09;;;;;;;29.25;18.42;;;27.00;99.90;;;;;;5092802;23;20642;-87
2023/06/29 14:05:10;;;;;;;34.60;18.63;;;26.70;99.90;;;;;;5117677;23;20224;-85
2023/06/29 14:07:12;;;;;;;26.42;17.60;;;26.80;99.90;;;;;;5117273;23;20243;-87
2023/06/29 14:09:13;;;;;;;24.48;17.92;;;26.60;99.90;;;;;;5093071;23;20236;-87
2023/06/29 14:11:14;;;;;;;24.25;15.85;;;26.90;99.90;;;;;;5143780;23;20254;-93
2023/06/29 14:13:14;;;;;;;23.65;16.40;;;27.40;99.90;;;;;;5093159;23;20157;-86
2023/06/29 14:15:15;;;;;;;28.05;18.15;;;27.40;99.90;;;;;;5092847;23;20204;-87
2023/06/29 14:17:19;;;;;;;26.20;18.50;;;27.50;99.90;;;;;;5092547;23;20164;-87
2023/06/29 14:19:19;;;;;;;23.90;15.65;;;27.60;99.90;;;;;;5093021;23;20209;-87
2023/06/29 14:21:20;;;;;;;21.83;13.05;;;27.30;99.90;;;;;;5093241;23;20145;-87
2023/06/29 14:23:23;;;;;;;17.00;11.95;;;27.20;99.90;;;;;;5117523;23;20168;-87
2023/06/29 14:25:24;;;;;;;18.77;12.00;;;27.10;99.90;;;;;;5117216;23;20666;-85
2023/06/29 14:27:25;;;;;;;21.20;12.77;;;26.50;99.90;;;;;;5117117;23;21510;-86
2023/06/29 14:29:26;;;;;;;18.50;12.48;;;26.40;99.90;;;;;;5092730;23;20152;-87
2023/06/29 14:31:26;;;;;;;24.08;12.60;;;26.70;99.90;;;;;;5093118;23;20180;-88
2023/06/29 14:33:28;;;;;;;18.70;13.13;;;27.10;99.90;;;;;;5093123;23;20153;-87
2023/06/29 14:35:29;;;;;;;20.42;13.32;;;27.10;99.90;;;;;;5092776;23;20182;-87
2023/06/29 14:37:29;;;;;;;24.70;14.40;;;27.30;99.90;;;;;;5092610;23;20180;-86
2023/06/29 14:39:30;;;;;;;18.02;12.70;;;27.50;99.90;;;;;;5117404;23;20152;-88
2023/06/29 14:41:33;;;;;;;20.95;14.43;;;27.20;99.90;;;;;;5092927;23;20160;-87
2023/06/29 14:43:34;;;;;;;18.88;13.52;;;27.30;99.90;;;;;;5117481;23;20155;-88
2023/06/29 14:45:34;;;;;;;22.55;13.20;;;27.00;99.90;;;;;;5093015;23;20193;-87
2023/06/29 14:47:35;;;;;;;18.42;12.43;;;26.80;99.90;;;;;;5117654;23;20179;-87
2023/06/29 14:49:36;;;;;;;26.13;14.32;;;26.50;99.90;;;;;;5092704;23;20191;-85
2023/06/29 14:51:36;;;;;;;18.13;13.77;;;26.40;99.90;;;;;;5092589;23;20559;-87
2023/06/29 14:53:37;;;;;;;22.02;14.93;;;26.30;99.90;;;;;;5118605;23;20152;-87
2023/06/29 14:55:38;;;;;;;21.08;13.50;;;26.60;99.90;;;;;;5094848;23;20167;-87
2023/06/29 14:57:38;;;;;;;19.90;13.82;;;26.60;99.90;;;;;;5094688;23;20180;-87
2023/06/29 14:59:39;;;;;;;24.40;14.02;;;26.70;99.90;;;;;;5094485;23;20156;-87
2023/06/29 15:01:40;;;;;;;20.55;14.25;;;26.30;99.90;;;;;;5118856;23;20587;-87
2023/06/29 15:03:40;;;;;;;25.85;15.10;;;26.30;99.90;;;;;;5094401;23;20149;-91
2023/06/29 15:05:41;;;;;;;21.50;14.18;;;26.10;99.90;;;;;;5094340;23;20182;-87
2023/06/29 15:07:42;;;;;;;21.42;15.55;;;25.80;99.90;;;;;;5094317;23;20191;-86
2023/06/29 15:09:43;;;;;;;24.80;15.80;;;25.30;99.90;;;;;;5118757;23;20180;-87
2023/06/29 15:11:44;;;;;;;25.25;15.95;;;25.10;99.90;;;;;;5094315;23;20592;-86
2023/06/29 15:13:45;;;;;;;23.73;15.77;;;25.00;99.90;;;;;;5094110;23;20153;-86
2023/06/29 15:15:46;;;;;;;26.05;17.05;;;25.10;99.90;;;;;;5094575;23;20157;-86
2023/06/29 15:17:46;;;;;;;24.95;16.50;;;25.10;99.90;;;;;;5119189;23;20681;-86
2023/06/29 15:19:47;;;;;;;25.50;16.95;;;24.90;99.90;;;;;;5120549;23;20658;-86
2023/06/29 15:21:48;;;;;;;26.88;15.60;;;24.90;99.90;;;;;;5118868;23;20732;-86
2023/06/29 15:23:49;;;;;;;24.73;15.95;;;24.50;99.90;;;;;;5095443;23;20152;-86